sensor_id;sensor_type;location;lat;lon;timestamp;temperature;humidity
15705;DHT22;7952;48.396;12.806;2024-02-26T00:02:23;5.40;57.00
15705;DHT22;7952;48.396;12.806;2024-02-26T00:04:48;5.40;57.00
15705;DHT22;7952;48.396;12.806;2024-02-26T00:07:15;5.40;57.00
15705;DHT22;7952;48.396;12.806;2024-02-26T00:09:41;5.40;57.00
15705;DHT22;7952;48.396;12.806;2024-02-26T00:12:07;5.40;57.00
15705;DHT22;7952;48.396;12.806;2024-02-26T00:14:33;5.40;57.00
15705;DHT22;7952;48.396;12.806;2024-02-26T00:16:59;5.40;57.00
15705;DHT22;7952;48.396;12.806;2024-02-26T00:19:24;5.40;57.20
15705;DHT22;7952;48.396;12.806;2024-02-26T00:21:50;5.30;57.00
15705;DHT22;7952;48.396;12.806;2024-02-26T00:24:16;5.40;57.10
15705;DHT22;7952;48.396;12.806;2024-02-26T00:26:42;5.30;57.10
15705;DHT22;7952;48.396;12.806;2024-02-26T00:29:07;5.30;57.10
15705;DHT22;7952;48.396;12.806;2024-02-26T00:31:33;5.30;57.10
15705;DHT22;7952;48.396;12.806;2024-02-26T00:33:59;5.30;57.20
15705;DHT22;7952;48.396;12.806;2024-02-26T00:36:24;5.30;57.10
15705;DHT22;7952;48.396;12.806;2024-02-26T00:38:50;5.30;57.20
15705;DHT22;7952;48.396;12.806;2024-02-26T00:41:17;5.20;57.20
15705;DHT22;7952;48.396;12.806;2024-02-26T00:43:43;5.20;57.30
15705;DHT22;7952;48.396;12.806;2024-02-26T00:46:09;5.20;57.30
15705;DHT22;7952;48.396;12.806;2024-02-26T00:48:35;5.20;57.20
15705;DHT22;7952;48.396;12.806;2024-02-26T00:51:00;5.20;57.30
15705;DHT22;7952;48.396;12.806;2024-02-26T00:53:26;5.20;57.30
15705;DHT22;7952;48.396;12.806;2024-02-26T00:55:52;5.20;57.30
15705;DHT22;7952;48.396;12.806;2024-02-26T00:58:17;5.20;57.30
15705;DHT22;7952;48.396;12.806;2024-02-26T01:00:44;5.20;57.30
15705;DHT22;7952;48.396;12.806;2024-02-26T01:03:10;5.20;57.30
15705;DHT22;7952;48.396;12.806;2024-02-26T01:05:36;5.20;57.30
15705;DHT22;7952;48.396;12.806;2024-02-26T01:08:03;5.20;57.30
15705;DHT22;7952;48.396;12.806;2024-02-26T01:10:29;5.20;57.30
15705;DHT22;7952;48.396;12.806;2024-02-26T01:12:54;5.20;57.30
15705;DHT22;7952;48.396;12.806;2024-02-26T01:15:20;5.20;57.30
15705;DHT22;7952;48.396;12.806;2024-02-26T01:17:49;5.20;57.30
15705;DHT22;7952;48.396;12.806;2024-02-26T01:20:16;5.20;57.30
15705;DHT22;7952;48.396;12.806;2024-02-26T01:22:42;5.20;57.40
15705;DHT22;7952;48.396;12.806;2024-02-26T01:25:08;5.20;57.30
15705;DHT22;7952;48.396;12.806;2024-02-26T01:27:36;5.20;57.30
15705;DHT22;7952;48.396;12.806;2024-02-26T01:30:05;5.20;57.30
15705;DHT22;7952;48.396;12.806;2024-02-26T01:32:31;5.20;57.30
15705;DHT22;7952;48.396;12.806;2024-02-26T01:35:03;5.20;57.40
15705;DHT22;7952;48.396;12.806;2024-02-26T01:37:30;5.20;57.40
15705;DHT22;7952;48.396;12.806;2024-02-26T01:39:56;5.10;57.40
15705;DHT22;7952;48.396;12.806;2024-02-26T01:42:22;5.10;57.30
15705;DHT22;7952;48.396;12.806;2024-02-26T01:44:47;5.10;57.40
15705;DHT22;7952;48.396;12.806;2024-02-26T01:47:13;5.10;57.40
15705;DHT22;7952;48.396;12.806;2024-02-26T01:49:40;5.10;57.50
15705;DHT22;7952;48.396;12.806;2024-02-26T01:52:09;5.10;57.50
15705;DHT22;7952;48.396;12.806;2024-02-26T01:54:37;5.10;57.60
15705;DHT22;7952;48.396;12.806;2024-02-26T01:57:05;5.10;57.60
15705;DHT22;7952;48.396;12.806;2024-02-26T01:59:32;5.10;57.60
15705;DHT22;7952;48.396;12.806;2024-02-26T02:01:59;5.10;57.60
15705;DHT22;7952;48.396;12.806;2024-02-26T02:04:27;5.10;57.60
15705;DHT22;7952;48.396;12.806;2024-02-26T02:06:53;5.10;57.60
15705;DHT22;7952;48.396;12.806;2024-02-26T02:09:20;5.10;57.60
15705;DHT22;7952;48.396;12.806;2024-02-26T02:11:47;5.10;57.60
15705;DHT22;7952;48.396;12.806;2024-02-26T02:14:14;5.10;57.60
15705;DHT22;7952;48.396;12.806;2024-02-26T02:16:39;5.00;57.50
15705;DHT22;7952;48.396;12.806;2024-02-26T02:19:05;5.10;57.60
15705;DHT22;7952;48.396;12.806;2024-02-26T02:21:31;5.00;57.50
15705;DHT22;7952;48.396;12.806;2024-02-26T02:23:57;5.00;57.40
15705;DHT22;7952;48.396;12.806;2024-02-26T02:26:22;5.00;57.50
15705;DHT22;7952;48.396;12.806;2024-02-26T02:28:49;5.00;57.50
15705;DHT22;7952;48.396;12.806;2024-02-26T02:31:15;5.00;57.60
15705;DHT22;7952;48.396;12.806;2024-02-26T02:33:41;5.00;57.60
15705;DHT22;7952;48.396;12.806;2024-02-26T02:36:07;5.00;57.60
15705;DHT22;7952;48.396;12.806;2024-02-26T02:38:36;5.00;57.60
15705;DHT22;7952;48.396;12.806;2024-02-26T02:41:02;5.00;57.70
15705;DHT22;7952;48.396;12.806;2024-02-26T02:43:28;5.00;57.70
15705;DHT22;7952;48.396;12.806;2024-02-26T02:45:54;5.00;57.70
15705;DHT22;7952;48.396;12.806;2024-02-26T02:48:19;5.00;57.60
15705;DHT22;7952;48.396;12.806;2024-02-26T02:50:45;5.00;57.60
15705;DHT22;7952;48.396;12.806;2024-02-26T02:53:11;5.00;57.60
15705;DHT22;7952;48.396;12.806;2024-02-26T02:55:37;5.00;57.60
15705;DHT22;7952;48.396;12.806;2024-02-26T02:58:03;5.00;57.60
15705;DHT22;7952;48.396;12.806;2024-02-26T03:00:33;5.00;57.60
15705;DHT22;7952;48.396;12.806;2024-02-26T03:02:58;5.00;57.60
15705;DHT22;7952;48.396;12.806;2024-02-26T03:05:24;5.00;57.60
15705;DHT22;7952;48.396;12.806;2024-02-26T03:07:50;5.00;57.50
15705;DHT22;7952;48.396;12.806;2024-02-26T03:10:15;5.00;57.50
15705;DHT22;7952;48.396;12.806;2024-02-26T03:12:41;5.00;57.50
15705;DHT22;7952;48.396;12.806;2024-02-26T03:15:07;5.00;57.50
15705;DHT22;7952;48.396;12.806;2024-02-26T03:17:33;5.00;57.50
15705;DHT22;7952;48.396;12.806;2024-02-26T03:19:58;5.00;57.50
15705;DHT22;7952;48.396;12.806;2024-02-26T03:22:24;4.90;57.40
15705;DHT22;7952;48.396;12.806;2024-02-26T03:24:50;4.90;57.50
15705;DHT22;7952;48.396;12.806;2024-02-26T03:27:15;4.90;57.60
15705;DHT22;7952;48.396;12.806;2024-02-26T03:29:41;4.90;57.60
15705;DHT22;7952;48.396;12.806;2024-02-26T03:32:07;4.90;57.60
15705;DHT22;7952;48.396;12.806;2024-02-26T03:34:33;4.90;57.60
15705;DHT22;7952;48.396;12.806;2024-02-26T03:37:04;4.90;57.60
15705;DHT22;7952;48.396;12.806;2024-02-26T03:39:30;4.90;57.60
15705;DHT22;7952;48.396;12.806;2024-02-26T03:41:56;4.90;57.60
15705;DHT22;7952;48.396;12.806;2024-02-26T03:44:22;4.90;57.60
15705;DHT22;7952;48.396;12.806;2024-02-26T03:46:47;4.90;57.60
15705;DHT22;7952;48.396;12.806;2024-02-26T03:49:13;4.90;57.60
15705;DHT22;7952;48.396;12.806;2024-02-26T03:51:39;4.90;57.60
15705;DHT22;7952;48.396;12.806;2024-02-26T03:54:04;4.90;57.60
15705;DHT22;7952;48.396;12.806;2024-02-26T03:56:30;4.80;57.50
15705;DHT22;7952;48.396;12.806;2024-02-26T03:58:56;4.80;57.50
15705;DHT22;7952;48.396;12.806;2024-02-26T04:01:22;4.80;57.50
15705;DHT22;7952;48.396;12.806;2024-02-26T04:03:47;4.80;57.60
15705;DHT22;7952;48.396;12.806;2024-02-26T04:06:13;4.70;57.50
15705;DHT22;7952;48.396;12.806;2024-02-26T04:08:40;4.70;57.50
15705;DHT22;7952;48.396;12.806;2024-02-26T04:11:06;4.70;57.50
15705;DHT22;7952;48.396;12.806;2024-02-26T04:13:36;4.70;57.50
15705;DHT22;7952;48.396;12.806;2024-02-26T04:16:05;4.70;57.50
15705;DHT22;7952;48.396;12.806;2024-02-26T04:18:32;4.70;57.50
15705;DHT22;7952;48.396;12.806;2024-02-26T04:20:57;4.60;57.40
15705;DHT22;7952;48.396;12.806;2024-02-26T04:23:24;4.60;57.50
15705;DHT22;7952;48.396;12.806;2024-02-26T04:25:49;4.60;57.50
15705;DHT22;7952;48.396;12.806;2024-02-26T04:28:15;4.60;57.50
15705;DHT22;7952;48.396;12.806;2024-02-26T04:30:41;4.50;57.40
15705;DHT22;7952;48.396;12.806;2024-02-26T04:33:07;4.50;57.40
15705;DHT22;7952;48.396;12.806;2024-02-26T04:35:33;4.50;57.40
15705;DHT22;7952;48.396;12.806;2024-02-26T04:38:00;4.50;57.40
15705;DHT22;7952;48.396;12.806;2024-02-26T04:40:26;4.50;57.40
15705;DHT22;7952;48.396;12.806;2024-02-26T04:42:52;4.40;57.40
15705;DHT22;7952;48.396;12.806;2024-02-26T04:45:18;4.40;57.50
15705;DHT22;7952;48.396;12.806;2024-02-26T04:47:43;4.40;57.50
15705;DHT22;7952;48.396;12.806;2024-02-26T04:50:12;4.30;57.40
15705;DHT22;7952;48.396;12.806;2024-02-26T04:52:38;4.30;57.50
15705;DHT22;7952;48.396;12.806;2024-02-26T04:55:04;4.30;57.50
15705;DHT22;7952;48.396;12.806;2024-02-26T04:57:29;4.30;57.50
15705;DHT22;7952;48.396;12.806;2024-02-26T04:59:55;4.30;57.50
15705;DHT22;7952;48.396;12.806;2024-02-26T05:02:21;4.30;57.50
15705;DHT22;7952;48.396;12.806;2024-02-26T05:04:46;4.30;57.50
15705;DHT22;7952;48.396;12.806;2024-02-26T05:07:12;4.30;57.50
15705;DHT22;7952;48.396;12.806;2024-02-26T05:09:39;4.30;57.50
15705;DHT22;7952;48.396;12.806;2024-02-26T05:12:05;4.30;57.50
15705;DHT22;7952;48.396;12.806;2024-02-26T05:14:31;4.30;57.50
15705;DHT22;7952;48.396;12.806;2024-02-26T05:16:57;4.30;57.50
15705;DHT22;7952;48.396;12.806;2024-02-26T05:19:23;4.30;57.50
15705;DHT22;7952;48.396;12.806;2024-02-26T05:21:48;4.30;57.40
15705;DHT22;7952;48.396;12.806;2024-02-26T05:24:16;4.30;57.40
15705;DHT22;7952;48.396;12.806;2024-02-26T05:26:43;4.20;57.40
15705;DHT22;7952;48.396;12.806;2024-02-26T05:29:09;4.20;57.40
15705;DHT22;7952;48.396;12.806;2024-02-26T05:31:35;4.20;57.50
15705;DHT22;7952;48.396;12.806;2024-02-26T05:34:00;4.20;57.50
15705;DHT22;7952;48.396;12.806;2024-02-26T05:36:26;4.20;57.60
15705;DHT22;7952;48.396;12.806;2024-02-26T05:38:54;4.20;57.50
15705;DHT22;7952;48.396;12.806;2024-02-26T05:41:20;4.20;57.60
15705;DHT22;7952;48.396;12.806;2024-02-26T05:43:55;4.20;57.50
15705;DHT22;7952;48.396;12.806;2024-02-26T05:46:21;4.20;57.50
15705;DHT22;7952;48.396;12.806;2024-02-26T05:48:49;4.20;57.50
15705;DHT22;7952;48.396;12.806;2024-02-26T05:51:15;4.20;57.50
15705;DHT22;7952;48.396;12.806;2024-02-26T05:53:41;4.20;57.60
15705;DHT22;7952;48.396;12.806;2024-02-26T05:56:08;4.20;57.60
15705;DHT22;7952;48.396;12.806;2024-02-26T05:58:34;4.10;57.40
15705;DHT22;7952;48.396;12.806;2024-02-26T06:01:00;4.10;57.40
15705;DHT22;7952;48.396;12.806;2024-02-26T06:03:26;4.10;57.40
15705;DHT22;7952;48.396;12.806;2024-02-26T06:05:52;4.20;57.60
15705;DHT22;7952;48.396;12.806;2024-02-26T06:08:18;4.20;57.60
15705;DHT22;7952;48.396;12.806;2024-02-26T06:10:44;4.20;57.60
15705;DHT22;7952;48.396;12.806;2024-02-26T06:13:10;4.30;57.70
15705;DHT22;7952;48.396;12.806;2024-02-26T06:15:35;4.30;57.60
15705;DHT22;7952;48.396;12.806;2024-02-26T06:18:01;4.30;57.60
15705;DHT22;7952;48.396;12.806;2024-02-26T06:20:27;4.40;57.60
15705;DHT22;7952;48.396;12.806;2024-02-26T06:22:53;4.60;58.10
15705;DHT22;7952;48.396;12.806;2024-02-26T06:25:18;4.80;58.60
15705;DHT22;7952;48.396;12.806;2024-02-26T06:27:44;5.10;59.20
15705;DHT22;7952;48.396;12.806;2024-02-26T06:30:10;5.50;59.80
15705;DHT22;7952;48.396;12.806;2024-02-26T06:32:37;6.00;59.70
15705;DHT22;7952;48.396;12.806;2024-02-26T06:35:03;6.40;59.40
15705;DHT22;7952;48.396;12.806;2024-02-26T06:37:35;6.90;59.20
15705;DHT22;7952;48.396;12.806;2024-02-26T06:40:02;7.40;59.10
15705;DHT22;7952;48.396;12.806;2024-02-26T06:42:32;7.80;59.00
15705;DHT22;7952;48.396;12.806;2024-02-26T06:47:24;8.60;57.80
15705;DHT22;7952;48.396;12.806;2024-02-26T06:49:49;8.90;58.00
15705;DHT22;7952;48.396;12.806;2024-02-26T06:52:15;9.10;57.50
15705;DHT22;7952;48.396;12.806;2024-02-26T06:54:41;9.20;56.90
15705;DHT22;7952;48.396;12.806;2024-02-26T06:57:07;9.10;56.40
15705;DHT22;7952;48.396;12.806;2024-02-26T06:59:32;9.00;56.30
15705;DHT22;7952;48.396;12.806;2024-02-26T07:01:58;8.90;56.40
15705;DHT22;7952;48.396;12.806;2024-02-26T07:04:24;8.80;56.50
15705;DHT22;7952;48.396;12.806;2024-02-26T07:06:50;8.70;56.50
15705;DHT22;7952;48.396;12.806;2024-02-26T07:09:15;8.60;56.60
15705;DHT22;7952;48.396;12.806;2024-02-26T07:11:41;8.60;57.10
15705;DHT22;7952;48.396;12.806;2024-02-26T07:14:09;8.70;57.60
15705;DHT22;7952;48.396;12.806;2024-02-26T07:16:34;9.00;57.90
15705;DHT22;7952;48.396;12.806;2024-02-26T07:19:00;9.20;57.90
15705;DHT22;7952;48.396;12.806;2024-02-26T07:21:26;9.40;57.80
15705;DHT22;7952;48.396;12.806;2024-02-26T07:23:52;9.60;57.70
15705;DHT22;7952;48.396;12.806;2024-02-26T07:26:18;9.70;57.50
15705;DHT22;7952;48.396;12.806;2024-02-26T07:28:45;9.80;57.30
15705;DHT22;7952;48.396;12.806;2024-02-26T07:31:10;9.90;57.30
15705;DHT22;7952;48.396;12.806;2024-02-26T07:33:36;9.90;57.10
15705;DHT22;7952;48.396;12.806;2024-02-26T07:36:03;9.90;57.00
15705;DHT22;7952;48.396;12.806;2024-02-26T07:38:29;9.90;57.00
15705;DHT22;7952;48.396;12.806;2024-02-26T07:40:55;10.00;56.20
15705;DHT22;7952;48.396;12.806;2024-02-26T07:43:22;10.10;56.10
15705;DHT22;7952;48.396;12.806;2024-02-26T07:45:48;10.20;56.10
15705;DHT22;7952;48.396;12.806;2024-02-26T07:48:14;10.30;56.30
15705;DHT22;7952;48.396;12.806;2024-02-26T07:50:39;10.40;56.30
15705;DHT22;7952;48.396;12.806;2024-02-26T07:53:06;10.50;56.20
15705;DHT22;7952;48.396;12.806;2024-02-26T07:55:32;10.60;56.20
15705;DHT22;7952;48.396;12.806;2024-02-26T07:57:57;10.70;56.50
15705;DHT22;7952;48.396;12.806;2024-02-26T08:00:23;11.00;57.10
15705;DHT22;7952;48.396;12.806;2024-02-26T08:02:49;11.40;57.40
15705;DHT22;7952;48.396;12.806;2024-02-26T08:05:14;11.70;57.60
15705;DHT22;7952;48.396;12.806;2024-02-26T08:07:41;12.10;57.60
15705;DHT22;7952;48.396;12.806;2024-02-26T08:10:07;12.50;57.60
15705;DHT22;7952;48.396;12.806;2024-02-26T08:12:33;12.80;57.30
15705;DHT22;7952;48.396;12.806;2024-02-26T08:14:59;13.10;57.30
15705;DHT22;7952;48.396;12.806;2024-02-26T08:17:25;13.50;57.50
15705;DHT22;7952;48.396;12.806;2024-02-26T08:19:52;13.90;57.60
15705;DHT22;7952;48.396;12.806;2024-02-26T08:22:18;14.20;57.20
15705;DHT22;7952;48.396;12.806;2024-02-26T08:24:44;14.50;56.90
15705;DHT22;7952;48.396;12.806;2024-02-26T08:27:10;14.80;57.10
15705;DHT22;7952;48.396;12.806;2024-02-26T08:29:36;15.10;57.40
15705;DHT22;7952;48.396;12.806;2024-02-26T08:32:02;15.50;57.50
15705;DHT22;7952;48.396;12.806;2024-02-26T08:34:28;15.90;57.30
15705;DHT22;7952;48.396;12.806;2024-02-26T08:36:54;16.20;57.10
15705;DHT22;7952;48.396;12.806;2024-02-26T08:39:19;16.40;56.60
15705;DHT22;7952;48.396;12.806;2024-02-26T08:41:46;16.50;56.20
15705;DHT22;7952;48.396;12.806;2024-02-26T08:44:11;16.50;56.10
15705;DHT22;7952;48.396;12.806;2024-02-26T08:46:37;16.50;56.30
15705;DHT22;7952;48.396;12.806;2024-02-26T08:49:04;16.50;56.10
15705;DHT22;7952;48.396;12.806;2024-02-26T08:51:29;16.50;55.70
15705;DHT22;7952;48.396;12.806;2024-02-26T08:53:55;16.40;55.70
15705;DHT22;7952;48.396;12.806;2024-02-26T08:56:21;16.20;55.60
15705;DHT22;7952;48.396;12.806;2024-02-26T08:58:47;16.00;55.60
15705;DHT22;7952;48.396;12.806;2024-02-26T09:01:17;15.90;55.70
15705;DHT22;7952;48.396;12.806;2024-02-26T09:03:43;15.70;55.70
15705;DHT22;7952;48.396;12.806;2024-02-26T09:06:09;15.60;55.80
15705;DHT22;7952;48.396;12.806;2024-02-26T09:08:35;15.40;55.80
15705;DHT22;7952;48.396;12.806;2024-02-26T09:11:02;15.30;56.20
15705;DHT22;7952;48.396;12.806;2024-02-26T09:13:29;15.30;57.40
15705;DHT22;7952;48.396;12.806;2024-02-26T09:15:54;15.40;56.90
15705;DHT22;7952;48.396;12.806;2024-02-26T09:18:20;15.50;56.50
15705;DHT22;7952;48.396;12.806;2024-02-26T09:20:46;15.60;56.40
15705;DHT22;7952;48.396;12.806;2024-02-26T09:23:11;15.60;56.40
15705;DHT22;7952;48.396;12.806;2024-02-26T09:25:37;15.60;56.60
15705;DHT22;7952;48.396;12.806;2024-02-26T09:28:03;15.70;56.80
15705;DHT22;7952;48.396;12.806;2024-02-26T09:30:29;15.90;57.00
15705;DHT22;7952;48.396;12.806;2024-02-26T09:32:55;16.00;56.90
15705;DHT22;7952;48.396;12.806;2024-02-26T09:35:21;16.10;56.40
15705;DHT22;7952;48.396;12.806;2024-02-26T09:37:47;16.10;55.90
15705;DHT22;7952;48.396;12.806;2024-02-26T09:40:15;16.00;55.60
15705;DHT22;7952;48.396;12.806;2024-02-26T09:42:52;15.80;55.50
15705;DHT22;7952;48.396;12.806;2024-02-26T09:45:19;15.60;55.30
15705;DHT22;7952;48.396;12.806;2024-02-26T09:47:48;15.40;55.30
15705;DHT22;7952;48.396;12.806;2024-02-26T09:50:17;15.10;55.20
15705;DHT22;7952;48.396;12.806;2024-02-26T09:52:43;14.90;55.20
15705;DHT22;7952;48.396;12.806;2024-02-26T09:55:09;14.60;55.30
15705;DHT22;7952;48.396;12.806;2024-02-26T09:57:37;14.50;55.50
15705;DHT22;7952;48.396;12.806;2024-02-26T10:00:04;14.30;55.50
15705;DHT22;7952;48.396;12.806;2024-02-26T10:02:35;14.20;55.50
15705;DHT22;7952;48.396;12.806;2024-02-26T10:05:03;14.10;55.40
15705;DHT22;7952;48.396;12.806;2024-02-26T10:07:31;14.00;55.30
15705;DHT22;7952;48.396;12.806;2024-02-26T10:09:57;13.90;55.30
15705;DHT22;7952;48.396;12.806;2024-02-26T10:12:24;13.80;55.30
15705;DHT22;7952;48.396;12.806;2024-02-26T10:14:52;13.90;55.60
15705;DHT22;7952;48.396;12.806;2024-02-26T10:17:19;14.10;55.60
15705;DHT22;7952;48.396;12.806;2024-02-26T10:19:45;14.20;55.10
15705;DHT22;7952;48.396;12.806;2024-02-26T10:22:11;14.30;55.10
15705;DHT22;7952;48.396;12.806;2024-02-26T10:24:37;14.40;54.90
15705;DHT22;7952;48.396;12.806;2024-02-26T10:27:03;14.50;54.90
15705;DHT22;7952;48.396;12.806;2024-02-26T10:29:29;14.60;54.70
15705;DHT22;7952;48.396;12.806;2024-02-26T10:31:54;14.60;54.40
15705;DHT22;7952;48.396;12.806;2024-02-26T10:34:21;14.70;54.10
15705;DHT22;7952;48.396;12.806;2024-02-26T10:36:47;14.60;53.80
15705;DHT22;7952;48.396;12.806;2024-02-26T10:39:13;14.60;53.90
15705;DHT22;7952;48.396;12.806;2024-02-26T10:41:41;14.50;53.70
15705;DHT22;7952;48.396;12.806;2024-02-26T10:44:09;14.40;53.60
15705;DHT22;7952;48.396;12.806;2024-02-26T10:46:37;14.30;53.60
15705;DHT22;7952;48.396;12.806;2024-02-26T10:49:03;14.20;53.50
15705;DHT22;7952;48.396;12.806;2024-02-26T10:51:30;14.10;53.50
15705;DHT22;7952;48.396;12.806;2024-02-26T10:53:58;13.90;53.50
15705;DHT22;7952;48.396;12.806;2024-02-26T10:56:28;13.80;53.50
15705;DHT22;7952;48.396;12.806;2024-02-26T10:58:58;13.70;53.70
15705;DHT22;7952;48.396;12.806;2024-02-26T11:01:24;13.70;54.40
15705;DHT22;7952;48.396;12.806;2024-02-26T11:03:52;13.60;53.70
15705;DHT22;7952;48.396;12.806;2024-02-26T11:06:19;13.50;53.60
15705;DHT22;7952;48.396;12.806;2024-02-26T11:08:53;13.40;53.60
15705;DHT22;7952;48.396;12.806;2024-02-26T11:11:20;13.40;53.70
15705;DHT22;7952;48.396;12.806;2024-02-26T11:13:47;13.30;53.70
15705;DHT22;7952;48.396;12.806;2024-02-26T11:16:21;13.20;53.80
15705;DHT22;7952;48.396;12.806;2024-02-26T11:18:48;13.20;54.00
15705;DHT22;7952;48.396;12.806;2024-02-26T11:21:18;13.10;54.00
15705;DHT22;7952;48.396;12.806;2024-02-26T11:23:48;13.10;54.00
15705;DHT22;7952;48.396;12.806;2024-02-26T11:26:15;13.10;54.00
15705;DHT22;7952;48.396;12.806;2024-02-26T11:28:44;13.00;53.90
15705;DHT22;7952;48.396;12.806;2024-02-26T11:31:11;13.00;54.00
15705;DHT22;7952;48.396;12.806;2024-02-26T11:33:38;13.00;54.00
15705;DHT22;7952;48.396;12.806;2024-02-26T11:36:12;12.90;53.70
15705;DHT22;7952;48.396;12.806;2024-02-26T11:38:42;12.70;53.50
15705;DHT22;7952;48.396;12.806;2024-02-26T11:41:18;12.60;53.50
15705;DHT22;7952;48.396;12.806;2024-02-26T11:44:29;12.40;53.40
15705;DHT22;7952;48.396;12.806;2024-02-26T11:46:56;12.20;53.40
15705;DHT22;7952;48.396;12.806;2024-02-26T11:49:31;12.10;53.50
15705;DHT22;7952;48.396;12.806;2024-02-26T11:51:57;12.00;53.70
15705;DHT22;7952;48.396;12.806;2024-02-26T11:57:28;11.80;53.80
15705;DHT22;7952;48.396;12.806;2024-02-26T12:00:13;11.80;53.80
15705;DHT22;7952;48.396;12.806;2024-02-26T12:05:12;11.70;53.80
15705;DHT22;7952;48.396;12.806;2024-02-26T12:08:06;11.60;53.70
15705;DHT22;7952;48.396;12.806;2024-02-26T12:10:41;11.60;53.80
15705;DHT22;7952;48.396;12.806;2024-02-26T12:13:16;11.60;53.80
15705;DHT22;7952;48.396;12.806;2024-02-26T12:15:45;11.60;53.80
15705;DHT22;7952;48.396;12.806;2024-02-26T12:18:18;11.60;53.90
15705;DHT22;7952;48.396;12.806;2024-02-26T12:20:44;11.60;53.90
15705;DHT22;7952;48.396;12.806;2024-02-26T12:23:15;11.60;53.90
15705;DHT22;7952;48.396;12.806;2024-02-26T12:25:41;11.60;53.90
15705;DHT22;7952;48.396;12.806;2024-02-26T12:28:09;11.70;53.90
15705;DHT22;7952;48.396;12.806;2024-02-26T12:30:35;11.70;53.90
15705;DHT22;7952;48.396;12.806;2024-02-26T12:33:01;11.70;53.80
15705;DHT22;7952;48.396;12.806;2024-02-26T12:35:28;11.70;53.80
15705;DHT22;7952;48.396;12.806;2024-02-26T12:37:54;11.80;53.90
15705;DHT22;7952;48.396;12.806;2024-02-26T12:40:20;11.90;54.00
15705;DHT22;7952;48.396;12.806;2024-02-26T12:42:46;12.00;54.10
15705;DHT22;7952;48.396;12.806;2024-02-26T12:45:13;12.10;54.00
15705;DHT22;7952;48.396;12.806;2024-02-26T12:47:47;12.20;53.90
15705;DHT22;7952;48.396;12.806;2024-02-26T12:50:15;12.30;53.60
15705;DHT22;7952;48.396;12.806;2024-02-26T12:52:48;12.40;53.60
15705;DHT22;7952;48.396;12.806;2024-02-26T12:55:36;12.50;53.70
15705;DHT22;7952;48.396;12.806;2024-02-26T12:58:22;12.60;53.60
15705;DHT22;7952;48.396;12.806;2024-02-26T13:00:54;12.60;53.40
15705;DHT22;7952;48.396;12.806;2024-02-26T13:03:22;12.70;53.40
15705;DHT22;7952;48.396;12.806;2024-02-26T13:05:48;12.80;53.40
15705;DHT22;7952;48.396;12.806;2024-02-26T13:08:21;12.80;53.30
15705;DHT22;7952;48.396;12.806;2024-02-26T13:10:47;12.90;53.50
15705;DHT22;7952;48.396;12.806;2024-02-26T13:13:17;13.00;53.50
15705;DHT22;7952;48.396;12.806;2024-02-26T13:15:44;13.10;53.40
15705;DHT22;7952;48.396;12.806;2024-02-26T13:18:10;13.20;53.30
15705;DHT22;7952;48.396;12.806;2024-02-26T13:20:36;13.30;53.30
15705;DHT22;7952;48.396;12.806;2024-02-26T13:25:28;13.40;53.10
15705;DHT22;7952;48.396;12.806;2024-02-26T13:28:06;13.50;53.00
15705;DHT22;7952;48.396;12.806;2024-02-26T13:30:32;13.50;52.90
15705;DHT22;7952;48.396;12.806;2024-02-26T13:33:10;13.50;52.70
15705;DHT22;7952;48.396;12.806;2024-02-26T13:35:37;13.50;52.60
15705;DHT22;7952;48.396;12.806;2024-02-26T13:38:04;13.50;52.60
15705;DHT22;7952;48.396;12.806;2024-02-26T13:40:30;13.50;52.70
15705;DHT22;7952;48.396;12.806;2024-02-26T13:42:56;13.50;52.70
15705;DHT22;7952;48.396;12.806;2024-02-26T13:45:21;13.50;52.60
15705;DHT22;7952;48.396;12.806;2024-02-26T13:47:47;13.50;52.50
15705;DHT22;7952;48.396;12.806;2024-02-26T13:50:13;13.40;52.50
15705;DHT22;7952;48.396;12.806;2024-02-26T13:52:39;13.40;52.50
15705;DHT22;7952;48.396;12.806;2024-02-26T13:55:05;13.40;52.60
15705;DHT22;7952;48.396;12.806;2024-02-26T13:57:31;13.40;52.50
15705;DHT22;7952;48.396;12.806;2024-02-26T13:59:56;13.40;52.50
15705;DHT22;7952;48.396;12.806;2024-02-26T14:02:22;13.40;52.50
15705;DHT22;7952;48.396;12.806;2024-02-26T14:04:48;13.40;52.40
15705;DHT22;7952;48.396;12.806;2024-02-26T14:07:14;13.40;52.20
15705;DHT22;7952;48.396;12.806;2024-02-26T14:09:42;13.40;52.20
15705;DHT22;7952;48.396;12.806;2024-02-26T14:12:08;13.40;52.10
15705;DHT22;7952;48.396;12.806;2024-02-26T14:14:34;13.40;52.00
15705;DHT22;7952;48.396;12.806;2024-02-26T14:17:04;13.40;51.90
15705;DHT22;7952;48.396;12.806;2024-02-26T14:19:29;13.40;51.60
15705;DHT22;7952;48.396;12.806;2024-02-26T14:21:55;13.40;51.40
15705;DHT22;7952;48.396;12.806;2024-02-26T14:24:21;13.30;51.30
15705;DHT22;7952;48.396;12.806;2024-02-26T14:26:46;13.30;51.20
15705;DHT22;7952;48.396;12.806;2024-02-26T14:29:12;13.30;51.20
15705;DHT22;7952;48.396;12.806;2024-02-26T14:31:38;13.30;51.00
15705;DHT22;7952;48.396;12.806;2024-02-26T14:34:04;13.20;50.80
15705;DHT22;7952;48.396;12.806;2024-02-26T14:36:30;13.20;50.80
15705;DHT22;7952;48.396;12.806;2024-02-26T14:38:55;13.10;50.80
15705;DHT22;7952;48.396;12.806;2024-02-26T14:41:22;13.10;50.80
15705;DHT22;7952;48.396;12.806;2024-02-26T14:43:48;13.10;50.80
15705;DHT22;7952;48.396;12.806;2024-02-26T14:46:14;13.10;50.80
15705;DHT22;7952;48.396;12.806;2024-02-26T14:48:42;13.00;50.70
15705;DHT22;7952;48.396;12.806;2024-02-26T14:51:11;13.00;50.80
15705;DHT22;7952;48.396;12.806;2024-02-26T14:53:42;13.00;50.80
15705;DHT22;7952;48.396;12.806;2024-02-26T14:56:08;13.00;50.90
15705;DHT22;7952;48.396;12.806;2024-02-26T14:58:35;13.00;50.90
15705;DHT22;7952;48.396;12.806;2024-02-26T15:01:00;13.00;50.90
15705;DHT22;7952;48.396;12.806;2024-02-26T15:03:26;13.00;50.90
15705;DHT22;7952;48.396;12.806;2024-02-26T15:05:59;13.00;51.40
15705;DHT22;7952;48.396;12.806;2024-02-26T15:08:28;13.00;50.80
15705;DHT22;7952;48.396;12.806;2024-02-26T15:10:54;13.00;50.70
15705;DHT22;7952;48.396;12.806;2024-02-26T15:13:20;13.00;50.60
15705;DHT22;7952;48.396;12.806;2024-02-26T15:15:46;12.90;50.50
15705;DHT22;7952;48.396;12.806;2024-02-26T15:18:12;12.90;50.50
15705;DHT22;7952;48.396;12.806;2024-02-26T15:20:44;12.80;50.30
15705;DHT22;7952;48.396;12.806;2024-02-26T15:23:23;12.80;50.40
15705;DHT22;7952;48.396;12.806;2024-02-26T15:25:53;12.70;50.20
15705;DHT22;7952;48.396;12.806;2024-02-26T15:28:19;12.60;50.20
15705;DHT22;7952;48.396;12.806;2024-02-26T15:33:45;12.50;50.20
15705;DHT22;7952;48.396;12.806;2024-02-26T15:38:47;12.40;50.30
15705;DHT22;7952;48.396;12.806;2024-02-26T15:41:14;12.30;50.30
15705;DHT22;7952;48.396;12.806;2024-02-26T15:43:40;12.30;50.40
15705;DHT22;7952;48.396;12.806;2024-02-26T15:46:06;12.20;50.30
15705;DHT22;7952;48.396;12.806;2024-02-26T15:48:33;12.20;50.40
15705;DHT22;7952;48.396;12.806;2024-02-26T15:50:59;12.20;50.40
15705;DHT22;7952;48.396;12.806;2024-02-26T15:53:24;12.10;50.40